Time;durP1;ratioP1;P1;durP2;ratioP2;P2;SDS_P1;SDS_P2;PMS_P1;PMS_P2;Temp;Humidity;BMP_temperature;BMP_pressure;BME280_temperature;BME280_humidity;BME280_pressure;Samples;Min_cycle;Max_cycle;Signal;HPM_P1;HPM_P2
2022/03/07 00:00:53;;;;;;;0.40;0.40;;;0.60;99.90;;;;;;5023351;28;20641;-83
2022/03/07 00:03:19;;;;;;;0.40;0.40;;;0.50;99.90;;;;;;5021331;28;20206;-83
2022/03/07 00:05:44;;;;;;;0.37;0.37;;;0.50;99.90;;;;;;5024835;28;20194;-83
2022/03/07 00:08:10;;;;;;;0.20;0.20;;;0.50;99.90;;;;;;5026486;28;20191;-82
2022/03/07 00:10:35;;;;;;;0.30;0.30;;;0.40;99.90;;;;;;5024352;28;20275;-83
2022/03/07 00:13:03;;;;;;;0.27;0.27;;;0.30;99.90;;;;;;5024350;28;20276;-83
2022/03/07 00:15:29;;;;;;;0.43;0.43;;;0.30;99.90;;;;;;5021676;28;21137;-82
2022/03/07 00:17:54;;;;;;;0.30;0.30;;;0.30;99.90;;;;;;5025056;28;20183;-83
2022/03/07 00:20:21;;;;;;;0.10;0.10;;;0.30;99.90;;;;;;5024129;28;20203;-83
2022/03/07 00:22:46;;;;;;;0.10;0.10;;;0.20;99.90;;;;;;5027204;28;20202;-83
2022/03/07 00:25:12;;;;;;;0.30;0.30;;;0.20;99.90;;;;;;5025601;28;20190;-82
2022/03/07 00:27:38;;;;;;;0.30;0.30;;;0.20;99.90;;;;;;5021577;28;20184;-83
2022/03/07 00:30:05;;;;;;;0.23;0.23;;;0.20;99.90;;;;;;5024606;28;20198;-82
2022/03/07 00:32:30;;;;;;;0.47;0.47;;;0.10;99.90;;;;;;5025157;28;20183;-82
2022/03/07 00:34:56;;;;;;;0.17;0.17;;;0.10;99.90;;;;;;5025417;28;20178;-83
2022/03/07 00:37:21;;;;;;;0.87;0.43;;;0.10;99.90;;;;;;5025043;28;20274;-83
2022/03/07 00:39:47;;;;;;;0.10;0.10;;;0.00;99.90;;;;;;5025455;28;20207;-83
2022/03/07 00:42:12;;;;;;;0.30;0.30;;;0.00;99.90;;;;;;5021944;28;20228;-83
2022/03/07 00:44:38;;;;;;;1.13;0.50;;;0.00;99.90;;;;;;5027384;28;20691;-83
2022/03/07 00:47:04;;;;;;;0.10;0.10;;;0.00;99.90;;;;;;5024011;28;20226;-82
2022/03/07 00:49:29;;;;;;;0.33;0.33;;;-0.10;99.90;;;;;;5020894;28;20202;-83
2022/03/07 00:51:57;;;;;;;0.13;0.13;;;-0.10;99.90;;;;;;5019010;28;20193;-83
2022/03/07 00:54:22;;;;;;;0.40;0.40;;;-0.10;99.90;;;;;;5021050;28;20194;-83
2022/03/07 00:56:48;;;;;;;0.17;0.17;;;-0.10;99.90;;;;;;5021808;28;20183;-83
2022/03/07 00:59:13;;;;;;;0.27;0.20;;;-0.20;99.90;;;;;;5023103;28;20301;-84
2022/03/07 01:01:39;;;;;;;0.10;0.10;;;-0.20;99.90;;;;;;5028947;28;20264;-84
2022/03/07 01:04:05;;;;;;;0.30;0.30;;;-0.20;99.90;;;;;;5026103;28;20198;-83
2022/03/07 01:06:30;;;;;;;0.87;0.60;;;-0.20;99.90;;;;;;5026691;28;20178;-83
2022/03/07 01:08:56;;;;;;;1.60;0.30;;;-0.20;99.90;;;;;;5022752;28;20262;-83
2022/03/07 01:11:21;;;;;;;0.43;0.43;;;-0.30;99.90;;;;;;5028763;28;20278;-83
2022/03/07 01:13:47;;;;;;;0.20;0.20;;;-0.30;99.90;;;;;;5029048;28;20187;-83
2022/03/07 01:16:12;;;;;;;0.40;0.40;;;-0.30;99.90;;;;;;5024229;28;20190;-84
2022/03/07 01:18:38;;;;;;;0.20;0.20;;;-0.30;99.90;;;;;;5023034;28;20263;-84
2022/03/07 01:21:04;;;;;;;0.10;0.10;;;-0.30;99.90;;;;;;5028003;28;20258;-86
2022/03/07 01:23:29;;;;;;;0.20;0.20;;;-0.40;99.90;;;;;;5027112;28;20217;-83
2022/03/07 01:25:55;;;;;;;0.47;0.40;;;-0.40;99.90;;;;;;5029609;28;20183;-86
2022/03/07 01:28:21;;;;;;;0.10;0.10;;;-0.40;99.90;;;;;;5023675;28;20183;-84
2022/03/07 01:30:48;;;;;;;0.40;0.40;;;-0.40;99.90;;;;;;5028183;28;20217;-84
2022/03/07 01:33:14;;;;;;;0.10;0.10;;;-0.40;99.90;;;;;;5027814;28;20269;-85
2022/03/07 01:35:40;;;;;;;0.20;0.20;;;-0.40;99.90;;;;;;5025811;28;20325;-84
2022/03/07 01:38:05;;;;;;;0.20;0.20;;;-0.50;99.90;;;;;;5029816;28;20201;-84
2022/03/07 01:40:35;;;;;;;0.10;0.10;;;-0.40;99.90;;;;;;5021507;28;20206;-85
2022/03/07 01:43:01;;;;;;;0.97;0.97;;;-0.50;99.90;;;;;;5028285;28;20357;-84
2022/03/07 01:45:27;;;;;;;0.47;0.33;;;-0.50;99.90;;;;;;5025581;28;20273;-85
2022/03/07 01:47:52;;;;;;;0.10;0.10;;;-0.50;99.90;;;;;;5028851;28;21331;-86
2022/03/07 01:50:19;;;;;;;1.80;0.50;;;-0.40;99.90;;;;;;5027011;28;20203;-84
2022/03/07 01:52:48;;;;;;;0.20;0.20;;;-0.40;99.90;;;;;;5026737;28;20186;-84
2022/03/07 01:55:14;;;;;;;0.10;0.10;;;-0.40;99.90;;;;;;5029299;28;20191;-84
2022/03/07 01:57:42;;;;;;;0.33;0.33;;;-0.30;99.90;;;;;;5021079;28;20187;-83
2022/03/07 02:00:17;;;;;;;0.10;0.10;;;-0.40;99.90;;;;;;5027356;28;20206;-84
2022/03/07 02:02:43;;;;;;;0.53;0.47;;;-0.30;99.90;;;;;;5027096;28;20613;-85
2022/03/07 02:05:09;;;;;;;0.30;0.30;;;-0.40;99.90;;;;;;5025559;28;20210;-85
2022/03/07 02:07:36;;;;;;;0.30;0.30;;;-0.30;99.90;;;;;;5026370;28;20702;-84
2022/03/07 02:10:02;;;;;;;0.30;0.30;;;-0.40;99.90;;;;;;5028712;28;20198;-84
2022/03/07 02:12:28;;;;;;;0.20;0.20;;;-0.30;99.90;;;;;;5026515;28;20182;-84
2022/03/07 02:14:54;;;;;;;0.30;0.30;;;-0.30;99.90;;;;;;5024033;28;20269;-85
2022/03/07 02:17:19;;;;;;;2.00;1.13;;;-0.30;99.90;;;;;;5027481;28;20217;-83
2022/03/07 02:19:44;;;;;;;0.20;0.20;;;-0.30;99.90;;;;;;5025604;28;20198;-84
2022/03/07 02:22:10;;;;;;;0.30;0.30;;;-0.30;99.90;;;;;;5023756;28;20822;-86
2022/03/07 02:24:36;;;;;;;0.30;0.30;;;-0.30;99.90;;;;;;5027396;28;20678;-83
2022/03/07 02:27:05;;;;;;;0.70;0.70;;;-0.20;99.90;;;;;;5024341;28;20194;-84
2022/03/07 02:29:31;;;;;;;2.43;0.60;;;-0.30;99.90;;;;;;5026274;28;20206;-84
2022/03/07 02:31:57;;;;;;;0.30;0.30;;;-0.20;99.90;;;;;;5022296;28;20644;-85
2022/03/07 02:34:23;;;;;;;0.63;0.63;;;-0.20;99.90;;;;;;5026473;28;20229;-86
2022/03/07 02:36:49;;;;;;;0.30;0.30;;;-0.30;99.90;;;;;;5028904;28;20193;-84
2022/03/07 02:39:14;;;;;;;0.50;0.50;;;-0.30;99.90;;;;;;5025091;28;20739;-84
2022/03/07 02:41:40;;;;;;;0.40;0.40;;;-0.30;99.90;;;;;;5027132;28;20210;-84
2022/03/07 02:44:07;;;;;;;0.77;0.50;;;-0.30;99.90;;;;;;5025836;28;20188;-83
2022/03/07 02:46:33;;;;;;;0.20;0.20;;;-0.40;99.90;;;;;;5026573;28;20182;-84
2022/03/07 02:48:59;;;;;;;0.50;0.50;;;-0.40;99.90;;;;;;5025114;28;20182;-86
2022/03/07 02:51:24;;;;;;;0.50;0.50;;;-0.40;99.90;;;;;;5020584;28;20182;-84
2022/03/07 02:53:50;;;;;;;0.50;0.50;;;-0.40;99.90;;;;;;5023805;28;20647;-86
2022/03/07 02:56:16;;;;;;;0.40;0.40;;;-0.50;99.90;;;;;;5022053;28;20189;-83
2022/03/07 02:58:43;;;;;;;0.30;0.30;;;-0.50;99.90;;;;;;5025690;28;20179;-84
2022/03/07 03:01:08;;;;;;;0.40;0.40;;;-0.50;99.90;;;;;;5025599;28;20580;-86
2022/03/07 03:03:34;;;;;;;1.03;0.70;;;-0.50;99.90;;;;;;5028178;28;20218;-83
2022/03/07 03:06:00;;;;;;;0.33;0.30;;;-0.60;99.90;;;;;;5023091;28;20233;-84
2022/03/07 03:08:26;;;;;;;0.33;0.33;;;-0.60;99.90;;;;;;5027482;28;20660;-85
2022/03/07 03:10:53;;;;;;;0.77;0.30;;;-0.60;99.90;;;;;;5025399;28;20198;-84
2022/03/07 03:13:22;;;;;;;2.53;1.03;;;-0.60;99.90;;;;;;5020713;28;20655;-84
2022/03/07 03:15:48;;;;;;;0.70;0.50;;;-0.60;99.90;;;;;;5024001;28;20243;-86
2022/03/07 03:18:14;;;;;;;1.23;0.90;;;-0.70;99.90;;;;;;5026595;28;20201;-83
2022/03/07 03:20:40;;;;;;;0.50;0.50;;;-0.60;99.90;;;;;;5025175;28;20229;-84
2022/03/07 03:23:06;;;;;;;1.53;0.47;;;-0.70;99.90;;;;;;5028087;28;20220;-84
2022/03/07 03:25:31;;;;;;;0.57;0.57;;;-0.70;99.90;;;;;;5025740;28;20179;-85
2022/03/07 03:27:57;;;;;;;0.30;0.30;;;-0.70;99.90;;;;;;5023495;28;20182;-84
2022/03/07 03:30:23;;;;;;;0.40;0.40;;;-0.70;99.90;;;;;;5016667;28;20236;-83
2022/03/07 03:32:48;;;;;;;0.63;0.63;;;-0.70;99.90;;;;;;5023274;28;20264;-84
2022/03/07 03:35:14;;;;;;;1.50;0.70;;;-0.70;99.90;;;;;;5022336;28;20198;-84
2022/03/07 03:37:40;;;;;;;0.40;0.40;;;-0.80;99.90;;;;;;5023201;28;20190;-83
2022/03/07 03:40:08;;;;;;;0.40;0.40;;;-0.80;99.90;;;;;;5018721;28;20729;-83
2022/03/07 03:42:35;;;;;;;1.20;1.13;;;-0.80;99.90;;;;;;5018604;28;20218;-83
2022/03/07 03:45:05;;;;;;;0.63;0.63;;;-0.80;99.90;;;;;;5022827;28;20193;-84
2022/03/07 03:47:32;;;;;;;1.60;0.63;;;-0.80;99.90;;;;;;5023406;28;20182;-84
2022/03/07 03:50:00;;;;;;;1.73;1.13;;;-0.70;99.90;;;;;;5024259;28;20743;-83
2022/03/07 03:52:27;;;;;;;0.30;0.30;;;-0.80;99.90;;;;;;5023693;28;20244;-84
2022/03/07 03:54:55;;;;;;;1.53;0.73;;;-0.80;99.90;;;;;;5025308;28;20210;-83
2022/03/07 03:57:21;;;;;;;0.97;0.70;;;-0.80;99.90;;;;;;5023661;28;20789;-83
2022/03/07 03:59:47;;;;;;;1.33;1.23;;;-0.80;99.90;;;;;;5020888;28;20206;-83
2022/03/07 04:02:12;;;;;;;0.40;0.40;;;-0.90;99.90;;;;;;5020431;28;20217;-83
2022/03/07 04:04:38;;;;;;;0.57;0.43;;;-0.90;99.90;;;;;;5024660;28;20248;-84
2022/03/07 04:07:03;;;;;;;0.40;0.40;;;-0.90;99.90;;;;;;5027050;28;20562;-83
2022/03/07 04:09:29;;;;;;;0.90;0.90;;;-0.90;99.90;;;;;;5023551;28;20209;-83
2022/03/07 04:11:55;;;;;;;0.47;0.47;;;-0.90;99.90;;;;;;5019236;28;20194;-83
2022/03/07 04:14:21;;;;;;;1.90;1.80;;;-1.00;99.90;;;;;;5026170;28;20698;-83
2022/03/07 04:16:47;;;;;;;0.43;0.43;;;-1.00;99.90;;;;;;5023248;28;20531;-83
2022/03/07 04:19:13;;;;;;;0.27;0.27;;;-1.00;99.90;;;;;;5023028;28;20251;-84
2022/03/07 04:21:39;;;;;;;0.50;0.50;;;-1.00;99.90;;;;;;5021902;28;20210;-85
2022/03/07 04:24:07;;;;;;;1.50;1.30;;;-1.00;99.90;;;;;;5018644;28;20330;-86
2022/03/07 04:26:32;;;;;;;2.07;1.90;;;-1.00;99.90;;;;;;5024257;28;20266;-83
2022/03/07 04:28:59;;;;;;;0.80;0.80;;;-1.00;99.90;;;;;;5025467;28;20705;-86
2022/03/07 04:31:25;;;;;;;2.73;1.03;;;-1.00;99.90;;;;;;5023827;28;20182;-83
2022/03/07 04:33:51;;;;;;;0.20;0.20;;;-1.00;99.90;;;;;;5030287;28;20207;-83
2022/03/07 04:36:18;;;;;;;0.30;0.30;;;-1.10;99.90;;;;;;5026318;28;20190;-85
2022/03/07 04:38:45;;;;;;;0.20;0.20;;;-1.10;99.90;;;;;;5028273;28;20184;-83
2022/03/07 04:41:11;;;;;;;0.20;0.20;;;-1.00;99.90;;;;;;5023826;28;20301;-83
2022/03/07 04:43:36;;;;;;;1.73;0.80;;;-1.00;99.90;;;;;;5028255;28;20754;-83
2022/03/07 04:46:04;;;;;;;2.33;1.03;;;-1.10;99.90;;;;;;5029078;28;20194;-83
2022/03/07 04:48:30;;;;;;;0.77;0.53;;;-1.10;99.90;;;;;;5025477;28;20648;-83
2022/03/07 04:50:56;;;;;;;1.57;1.47;;;-1.10;99.90;;;;;;5027602;28;20208;-83
2022/03/07 04:53:21;;;;;;;0.30;0.30;;;-1.10;99.90;;;;;;5029092;28;20209;-84
2022/03/07 04:55:47;;;;;;;1.20;0.60;;;-1.10;99.90;;;;;;5024534;28;20205;-83
2022/03/07 04:58:13;;;;;;;0.53;0.53;;;-1.10;99.90;;;;;;5030593;28;20633;-86
2022/03/07 05:00:38;;;;;;;2.03;0.53;;;-1.10;99.90;;;;;;5023082;28;20210;-83
2022/03/07 05:03:04;;;;;;;0.93;0.93;;;-1.10;99.90;;;;;;5027931;28;20210;-83
2022/03/07 05:05:30;;;;;;;0.43;0.43;;;-1.10;99.90;;;;;;5023581;28;20197;-83
2022/03/07 05:07:55;;;;;;;0.50;0.50;;;-1.00;99.90;;;;;;5027328;28;20183;-84
2022/03/07 05:10:21;;;;;;;0.50;0.50;;;-1.00;99.90;;;;;;5023525;28;20232;-84
2022/03/07 05:12:49;;;;;;;0.50;0.50;;;-1.00;99.90;;;;;;5045209;28;20244;-83
2022/03/07 05:15:15;;;;;;;0.93;0.77;;;-1.00;99.90;;;;;;5023110;28;20220;-83
2022/03/07 05:17:50;;;;;;;1.17;0.30;;;-1.00;99.90;;;;;;5027405;28;20216;-86
2022/03/07 05:20:17;;;;;;;0.77;0.77;;;-1.00;99.90;;;;;;5030241;28;20790;-83
2022/03/07 05:22:43;;;;;;;0.77;0.77;;;-1.10;99.90;;;;;;5035161;28;20202;-82
2022/03/07 05:25:10;;;;;;;0.93;0.93;;;-1.10;99.90;;;;;;5029564;28;20191;-83
2022/03/07 05:27:36;;;;;;;0.70;0.70;;;-1.10;99.90;;;;;;5034362;28;20179;-83
2022/03/07 05:30:03;;;;;;;5.00;0.87;;;-1.10;99.90;;;;;;5029445;28;20283;-83
2022/03/07 05:32:29;;;;;;;0.20;0.20;;;-1.10;99.90;;;;;;5030170;28;20213;-83
2022/03/07 05:34:54;;;;;;;1.13;1.13;;;-1.10;99.90;;;;;;5030520;28;20190;-83
2022/03/07 05:37:20;;;;;;;0.20;0.20;;;-1.10;99.90;;;;;;5028591;28;20709;-84
2022/03/07 05:39:45;;;;;;;1.30;1.03;;;-1.10;99.90;;;;;;5027862;28;20698;-84
2022/03/07 05:42:11;;;;;;;0.37;0.37;;;-1.00;99.90;;;;;;5026390;28;20206;-84
2022/03/07 05:44:36;;;;;;;1.80;1.60;;;-1.00;99.90;;;;;;5020115;28;20210;-84
2022/03/07 05:47:03;;;;;;;0.60;0.60;;;-1.10;99.90;;;;;;5024476;28;20205;-84
2022/03/07 05:49:28;;;;;;;0.53;0.47;;;-1.10;99.90;;;;;;5023623;28;20312;-84
2022/03/07 05:51:54;;;;;;;0.80;0.77;;;-1.10;99.90;;;;;;5024207;28;20849;-84
2022/03/07 05:54:19;;;;;;;1.83;0.43;;;-1.10;99.90;;;;;;5024694;28;20288;-84
2022/03/07 05:56:45;;;;;;;0.33;0.33;;;-1.00;99.90;;;;;;5022061;28;20194;-84
2022/03/07 05:59:10;;;;;;;1.13;0.97;;;-1.00;99.90;;;;;;5023707;28;20233;-84
2022/03/07 06:01:36;;;;;;;0.93;0.93;;;-1.00;99.90;;;;;;5024814;28;20213;-84
2022/03/07 06:04:02;;;;;;;0.83;0.40;;;-0.90;99.90;;;;;;5025385;28;20289;-84
2022/03/07 06:06:27;;;;;;;1.00;0.80;;;-0.90;99.90;;;;;;5027128;28;20213;-83
2022/03/07 06:08:53;;;;;;;0.60;0.60;;;-0.90;99.90;;;;;;5025043;28;20698;-84
2022/03/07 06:11:18;;;;;;;0.20;0.20;;;-0.90;99.90;;;;;;5021748;28;20884;-83
2022/03/07 06:13:44;;;;;;;3.37;1.63;;;-0.90;99.90;;;;;;5027137;28;20190;-82
2022/03/07 06:16:09;;;;;;;1.13;0.70;;;-0.90;99.90;;;;;;5026305;28;20186;-83
2022/03/07 06:18:35;;;;;;;1.13;0.93;;;-0.90;99.90;;;;;;5025957;28;20194;-80
2022/03/07 06:21:00;;;;;;;1.03;0.93;;;-0.80;99.90;;;;;;5025795;28;20691;-81
2022/03/07 06:23:26;;;;;;;1.07;1.07;;;-0.80;99.90;;;;;;5025225;28;20293;-81
2022/03/07 06:25:52;;;;;;;0.80;0.80;;;-0.80;99.90;;;;;;5024312;28;20655;-81
2022/03/07 06:28:17;;;;;;;1.23;1.00;;;-0.70;99.90;;;;;;5020971;28;20282;-81
2022/03/07 06:30:46;;;;;;;0.27;0.27;;;-0.70;99.90;;;;;;5027057;28;20206;-80
2022/03/07 06:33:13;;;;;;;0.77;0.77;;;-0.60;99.90;;;;;;5026988;28;20686;-81
2022/03/07 06:35:39;;;;;;;0.77;0.50;;;-0.50;99.90;;;;;;5026591;28;20186;-81
2022/03/07 06:38:04;;;;;;;0.33;0.33;;;-0.40;99.90;;;;;;5019264;28;20190;-81
2022/03/07 06:40:31;;;;;;;1.57;1.23;;;-0.40;99.90;;;;;;5023387;28;20202;-81
2022/03/07 06:42:57;;;;;;;0.50;0.50;;;-0.30;99.90;;;;;;5025497;28;20236;-81
2022/03/07 06:45:23;;;;;;;0.50;0.50;;;-0.20;99.90;;;;;;5017505;28;20182;-81
2022/03/07 06:47:48;;;;;;;0.97;0.67;;;-0.10;99.90;;;;;;5027541;28;20179;-81
2022/03/07 06:50:16;;;;;;;3.03;0.60;;;-0.10;99.90;;;;;;5025007;28;20203;-84
2022/03/07 06:52:43;;;;;;;0.73;0.73;;;0.00;99.90;;;;;;5026582;28;20190;-84
2022/03/07 06:55:09;;;;;;;0.70;0.53;;;0.10;99.90;;;;;;5023327;28;20198;-84
2022/03/07 06:57:35;;;;;;;0.50;0.43;;;0.10;99.90;;;;;;5027048;28;20179;-83
2022/03/07 07:00:01;;;;;;;0.20;0.20;;;0.30;99.90;;;;;;5021766;28;20201;-82
2022/03/07 07:02:26;;;;;;;0.93;0.43;;;0.40;99.90;;;;;;5029086;28;20736;-82
2022/03/07 07:04:53;;;;;;;0.70;0.63;;;0.40;99.90;;;;;;5023083;28;20194;-82
2022/03/07 07:07:18;;;;;;;0.60;0.60;;;0.40;99.90;;;;;;5024295;28;20185;-82
2022/03/07 07:09:44;;;;;;;0.33;0.33;;;0.50;99.90;;;;;;5024407;28;20203;-82
2022/03/07 07:12:09;;;;;;;2.33;0.63;;;0.50;99.90;;;;;;5020876;28;20197;-82
2022/03/07 07:14:36;;;;;;;1.50;1.40;;;0.50;99.90;;;;;;5021738;28;20190;-82
2022/03/07 07:17:03;;;;;;;0.63;0.63;;;0.60;99.90;;;;;;5020238;28;20203;-83
2022/03/07 07:19:29;;;;;;;0.43;0.43;;;0.70;99.90;;;;;;5024268;28;20202;-83
2022/03/07 07:21:55;;;;;;;1.80;1.53;;;0.70;99.90;;;;;;5026747;28;20206;-82
2022/03/07 07:24:21;;;;;;;0.93;0.83;;;0.80;99.90;;;;;;5047514;28;20186;-82
2022/03/07 07:26:47;;;;;;;0.23;0.23;;;0.90;99.90;;;;;;5027287;28;20191;-82
2022/03/07 07:29:12;;;;;;;1.03;0.83;;;0.90;99.90;;;;;;5021655;28;20200;-82
2022/03/07 07:31:38;;;;;;;0.63;0.63;;;1.10;99.90;;;;;;5023945;28;20558;-82
2022/03/07 07:34:03;;;;;;;1.50;0.60;;;1.20;99.90;;;;;;5025974;28;20190;-82
2022/03/07 07:36:29;;;;;;;0.20;0.20;;;1.40;99.90;;;;;;5024464;28;20199;-83
2022/03/07 07:38:55;;;;;;;1.40;0.77;;;1.30;99.90;;;;;;5025500;28;20252;-83
2022/03/07 07:41:20;;;;;;;0.40;0.40;;;1.40;99.90;;;;;;5021777;28;20210;-83
2022/03/07 07:43:49;;;;;;;2.20;1.17;;;1.30;99.90;;;;;;5025408;28;20222;-83
2022/03/07 07:46:14;;;;;;;1.97;1.30;;;1.30;99.90;;;;;;5026747;28;20538;-83
2022/03/07 07:48:40;;;;;;;0.30;0.30;;;1.40;99.90;;;;;;5023342;28;20187;-83
2022/03/07 07:51:06;;;;;;;0.53;0.43;;;1.70;99.90;;;;;;5021745;28;20218;-83
2022/03/07 07:53:32;;;;;;;0.73;0.73;;;2.00;99.90;;;;;;5025921;28;20662;-83
2022/03/07 07:55:57;;;;;;;0.30;0.30;;;2.20;99.90;;;;;;5023519;28;20188;-83
2022/03/07 07:58:23;;;;;;;0.80;0.80;;;2.30;99.90;;;;;;5040772;28;20222;-83
2022/03/07 08:00:48;;;;;;;0.57;0.57;;;2.10;99.90;;;;;;5021981;28;20654;-83
2022/03/07 08:03:14;;;;;;;1.27;0.93;;;1.80;99.90;;;;;;5022009;28;20221;-84
2022/03/07 08:05:40;;;;;;;1.03;0.80;;;2.00;99.90;;;;;;5022064;28;20268;-83
2022/03/07 08:08:05;;;;;;;0.27;0.27;;;2.10;99.90;;;;;;5018622;28;20199;-83
2022/03/07 08:10:31;;;;;;;0.57;0.57;;;2.10;99.90;;;;;;5016512;28;20294;-83
2022/03/07 08:12:58;;;;;;;1.27;0.40;;;2.20;99.90;;;;;;5023300;28;20245;-83
2022/03/07 08:15:23;;;;;;;0.30;0.30;;;2.10;99.90;;;;;;5021370;28;20201;-82
2022/03/07 08:17:50;;;;;;;0.80;0.70;;;2.20;99.90;;;;;;5024103;28;20186;-83
2022/03/07 08:20:18;;;;;;;0.63;0.63;;;2.00;99.90;;;;;;5023455;28;20216;-82
2022/03/07 08:22:44;;;;;;;0.43;0.43;;;2.10;99.90;;;;;;5024672;28;20551;-83
2022/03/07 08:25:10;;;;;;;0.20;0.20;;;2.30;99.90;;;;;;5022845;28;20234;-83
2022/03/07 08:27:36;;;;;;;2.20;0.67;;;2.40;99.90;;;;;;5024885;28;20196;-83
2022/03/07 08:30:04;;;;;;;0.40;0.30;;;1.80;99.90;;;;;;5025183;28;20205;-83
2022/03/07 08:32:29;;;;;;;0.67;0.50;;;1.90;99.90;;;;;;5025839;28;20191;-82
2022/03/07 08:34:57;;;;;;;0.30;0.30;;;2.30;99.90;;;;;;5025365;28;20196;-83
2022/03/07 08:37:22;;;;;;;0.40;0.40;;;2.00;99.90;;;;;;5020197;28;20223;-83
2022/03/07 08:39:48;;;;;;;0.20;0.20;;;1.70;99.90;;;;;;5023435;28;20209;-83
2022/03/07 08:42:13;;;;;;;0.77;0.77;;;1.60;99.90;;;;;;5024035;28;20385;-83
2022/03/07 08:44:39;;;;;;;0.63;0.63;;;1.80;99.90;;;;;;5025139;28;20678;-83
2022/03/07 08:47:04;;;;;;;0.43;0.43;;;2.00;99.90;;;;;;5025038;28;20220;-83
2022/03/07 08:49:30;;;;;;;0.83;0.83;;;2.10;99.90;;;;;;5026023;28;20236;-83
2022/03/07 08:51:56;;;;;;;0.60;0.53;;;2.40;99.90;;;;;;5040849;28;20586;-83
2022/03/07 08:54:21;;;;;;;0.43;0.43;;;2.80;99.90;;;;;;5023835;28;20199;-82
2022/03/07 08:56:47;;;;;;;0.40;0.40;;;3.00;99.90;;;;;;5021854;28;20665;-83
2022/03/07 08:59:12;;;;;;;0.60;0.60;;;2.70;99.90;;;;;;5017836;28;20625;-82
2022/03/07 09:01:38;;;;;;;0.70;0.70;;;2.70;99.90;;;;;;5018560;28;20189;-83
2022/03/07 09:04:04;;;;;;;0.43;0.30;;;2.70;99.90;;;;;;5023599;28;20188;-83
2022/03/07 09:06:29;;;;;;;0.43;0.40;;;3.10;99.90;;;;;;5022017;28;20651;-83
2022/03/07 09:08:55;;;;;;;1.23;0.53;;;3.20;99.90;;;;;;5017132;28;20549;-83
2022/03/07 09:11:21;;;;;;;0.30;0.30;;;3.10;99.90;;;;;;5022712;28;20207;-83
2022/03/07 09:13:46;;;;;;;0.83;0.60;;;3.10;99.90;;;;;;5024390;28;20280;-84
2022/03/07 09:16:14;;;;;;;0.50;0.50;;;3.10;99.90;;;;;;5020058;28;20249;-82
2022/03/07 09:18:40;;;;;;;0.50;0.50;;;2.90;99.90;;;;;;5024277;28;20178;-82
2022/03/07 09:21:06;;;;;;;1.03;0.57;;;2.30;99.90;;;;;;5025563;28;20782;-82
2022/03/07 09:23:37;;;;;;;0.40;0.40;;;2.30;99.90;;;;;;5025757;28;20292;-83
2022/03/07 09:26:03;;;;;;;1.63;0.60;;;2.50;99.90;;;;;;5027062;28;20177;-83
2022/03/07 09:28:29;;;;;;;0.30;0.30;;;2.70;99.90;;;;;;5028246;28;20201;-83
2022/03/07 09:30:54;;;;;;;0.20;0.20;;;2.90;99.90;;;;;;5022167;28;20205;-83
2022/03/07 09:33:20;;;;;;;0.33;0.27;;;2.90;99.90;;;;;;5027665;28;20193;-82
2022/03/07 09:35:45;;;;;;;0.60;0.60;;;3.30;99.90;;;;;;5024331;28;20193;-83
2022/03/07 09:38:11;;;;;;;0.40;0.40;;;3.00;99.90;;;;;;5025466;28;20206;-83
2022/03/07 09:40:36;;;;;;;0.67;0.50;;;3.30;99.90;;;;;;5020674;28;20201;-83
2022/03/07 09:43:03;;;;;;;0.20;0.20;;;3.40;99.90;;;;;;5025058;28;20284;-85
2022/03/07 09:45:28;;;;;;;0.60;0.53;;;3.60;99.90;;;;;;5024145;28;20214;-84
2022/03/07 09:47:56;;;;;;;0.53;0.53;;;3.20;99.90;;;;;;5024187;28;20695;-85
2022/03/07 09:50:22;;;;;;;1.33;0.60;;;3.50;99.90;;;;;;5024415;28;20287;-85
2022/03/07 09:52:49;;;;;;;0.57;0.50;;;3.60;99.90;;;;;;5025021;28;20711;-85
2022/03/07 09:55:16;;;;;;;1.37;0.83;;;3.50;99.90;;;;;;5027658;28;20219;-85
2022/03/07 09:57:45;;;;;;;2.53;0.90;;;4.20;99.90;;;;;;5024012;28;20207;-84
2022/03/07 10:00:11;;;;;;;0.27;0.27;;;4.40;99.90;;;;;;5026811;28;20210;-85
2022/03/07 10:02:37;;;;;;;0.63;0.63;;;5.00;99.90;;;;;;5025486;28;20214;-85
2022/03/07 10:05:04;;;;;;;0.30;0.30;;;4.20;99.90;;;;;;5023619;28;20204;-85
2022/03/07 10:07:29;;;;;;;0.70;0.70;;;3.80;99.90;;;;;;5023889;28;20179;-85
2022/03/07 10:10:07;;;;;;;0.23;0.23;;;3.70;99.90;;;;;;5022840;28;20251;-85
2022/03/07 10:12:32;;;;;;;0.17;0.17;;;3.60;99.90;;;;;;5023007;28;20188;-85
2022/03/07 10:14:58;;;;;;;1.70;0.67;;;4.10;99.90;;;;;;5023263;28;20187;-85
2022/03/07 10:17:31;;;;;;;1.40;0.67;;;4.50;99.90;;;;;;5027331;28;20194;-82
2022/03/07 10:20:02;;;;;;;0.27;0.27;;;4.50;99.90;;;;;;5029400;28;20300;-82
2022/03/07 10:22:28;;;;;;;0.20;0.20;;;4.90;99.90;;;;;;5028455;28;20229;-82
2022/03/07 10:25:06;;;;;;;0.97;0.87;;;5.30;99.90;;;;;;5029408;28;20204;-83
2022/03/07 10:27:34;;;;;;;0.20;0.20;;;5.10;99.90;;;;;;5028213;28;20174;-82
2022/03/07 10:30:01;;;;;;;0.47;0.37;;;4.90;99.90;;;;;;5032186;28;20591;-82
2022/03/07 10:32:26;;;;;;;0.73;0.73;;;4.70;99.90;;;;;;5028542;28;20246;-82
2022/03/07 10:34:53;;;;;;;0.37;0.37;;;4.20;99.90;;;;;;5030503;28;20180;-82
2022/03/07 10:37:18;;;;;;;0.30;0.30;;;4.00;99.90;;;;;;5030265;28;20200;-82
2022/03/07 10:39:52;;;;;;;0.40;0.30;;;3.80;99.90;;;;;;5025356;28;20205;-82
2022/03/07 10:42:19;;;;;;;0.40;0.40;;;4.50;99.90;;;;;;5028837;28;20208;-82
2022/03/07 10:44:45;;;;;;;0.83;0.47;;;4.30;99.90;;;;;;5030629;28;20192;-82
2022/03/07 10:47:20;;;;;;;0.53;0.53;;;4.10;99.90;;;;;;5029975;28;20182;-83
2022/03/07 10:49:48;;;;;;;1.33;1.23;;;4.20;99.90;;;;;;5030279;28;20207;-82
2022/03/07 10:52:13;;;;;;;0.50;0.50;;;4.00;99.90;;;;;;5027104;28;20221;-82
2022/03/07 10:54:39;;;;;;;0.30;0.30;;;4.40;99.90;;;;;;5028481;28;20237;-82
2022/03/07 10:57:08;;;;;;;0.53;0.53;;;4.50;99.90;;;;;;5021393;28;20193;-82
2022/03/07 10:59:35;;;;;;;0.70;0.70;;;4.50;99.90;;;;;;5029613;28;20251;-82
2022/03/07 11:02:10;;;;;;;0.50;0.43;;;4.40;99.90;;;;;;5029127;28;20274;-82
2022/03/07 11:04:40;;;;;;;0.70;0.60;;;5.10;99.90;;;;;;5029529;28;20191;-82
2022/03/07 11:07:08;;;;;;;1.03;0.63;;;5.00;99.90;;;;;;5026411;28;20338;-82
2022/03/07 11:09:34;;;;;;;0.23;0.23;;;4.90;99.90;;;;;;5026875;28;20281;-82
2022/03/07 11:12:00;;;;;;;0.23;0.17;;;4.70;99.90;;;;;;5028280;28;20258;-82
2022/03/07 11:14:27;;;;;;;0.40;0.40;;;4.70;99.90;;;;;;5027795;28;20183;-82
2022/03/07 11:16:56;;;;;;;0.37;0.37;;;5.10;99.90;;;;;;5026985;28;20210;-82
2022/03/07 11:19:24;;;;;;;0.70;0.70;;;5.40;99.90;;;;;;5029626;28;20232;-82
2022/03/07 11:21:51;;;;;;;1.30;0.40;;;5.00;99.90;;;;;;5027392;28;20180;-82
2022/03/07 11:24:19;;;;;;;0.30;0.30;;;5.10;99.90;;;;;;5025885;28;20682;-82
2022/03/07 11:26:46;;;;;;;0.43;0.43;;;4.90;99.90;;;;;;5025475;28;20220;-82
2022/03/07 11:29:12;;;;;;;1.27;1.27;;;4.60;99.90;;;;;;5026652;28;20186;-82
2022/03/07 11:31:39;;;;;;;0.70;0.50;;;5.20;99.90;;;;;;5024657;28;20182;-82
2022/03/07 11:34:11;;;;;;;0.10;0.10;;;5.90;99.90;;;;;;5026993;28;20544;-82
2022/03/07 11:36:44;;;;;;;0.40;0.40;;;5.90;99.90;;;;;;5023085;28;20179;-82
2022/03/07 11:39:10;;;;;;;1.10;0.30;;;6.20;99.90;;;;;;5027973;28;20235;-83
2022/03/07 11:41:38;;;;;;;0.40;0.40;;;5.70;99.90;;;;;;5027558;28;20182;-82
2022/03/07 11:44:10;;;;;;;0.30;0.30;;;5.50;99.90;;;;;;5030304;28;20666;-82
2022/03/07 11:46:36;;;;;;;0.27;0.27;;;5.00;99.90;;;;;;5030201;28;20655;-82
2022/03/07 11:49:04;;;;;;;1.40;0.47;;;4.90;99.90;;;;;;5026314;28;20217;-82
2022/03/07 11:51:33;;;;;;;0.10;0.10;;;5.10;99.90;;;;;;5027796;28;20663;-82
2022/03/07 11:53:59;;;;;;;1.60;0.43;;;5.10;99.90;;;;;;5022266;28;20267;-82
2022/03/07 11:56:31;;;;;;;0.87;0.87;;;5.30;99.90;;;;;;5026825;28;20186;-82
2022/03/07 11:58:59;;;;;;;0.40;0.40;;;5.20;99.90;;;;;;5028502;28;20178;-82
2022/03/07 12:01:27;;;;;;;0.10;0.10;;;5.20;99.90;;;;;;5027290;28;20202;-83
2022/03/07 12:03:54;;;;;;;0.33;0.33;;;5.80;99.90;;;;;;5027222;28;20221;-82
2022/03/07 12:06:21;;;;;;;2.70;0.57;;;5.80;99.90;;;;;;5026438;28;20262;-83
2022/03/07 12:09:00;;;;;;;0.13;0.13;;;5.50;99.90;;;;;;5026466;28;20614;-82
2022/03/07 12:11:36;;;;;;;0.37;0.37;;;6.00;99.90;;;;;;5026072;28;20236;-82
2022/03/07 12:14:08;;;;;;;1.07;0.97;;;5.90;99.90;;;;;;5023723;28;20193;-82
2022/03/07 12:16:36;;;;;;;0.27;0.27;;;5.30;99.90;;;;;;5025419;28;20186;-82
2022/03/07 12:19:15;;;;;;;0.30;0.30;;;5.60;99.90;;;;;;5027893;28;20229;-83
2022/03/07 12:21:43;;;;;;;0.57;0.53;;;5.40;99.90;;;;;;5031216;28;20511;-83
2022/03/07 12:24:15;;;;;;;0.60;0.60;;;5.10;99.90;;;;;;5027513;28;20184;-83
2022/03/07 12:26:51;;;;;;;0.87;0.70;;;4.70;99.90;;;;;;5022017;28;20182;-84
2022/03/07 12:29:19;;;;;;;0.30;0.30;;;5.00;99.90;;;;;;5022452;28;20181;-83
2022/03/07 12:32:03;;;;;;;0.53;0.30;;;5.00;99.90;;;;;;5018913;28;20179;-83
2022/03/07 12:34:31;;;;;;;0.27;0.20;;;5.10;99.90;;;;;;5023222;28;20179;-83
2022/03/07 12:37:03;;;;;;;0.70;0.70;;;5.40;99.90;;;;;;5022433;28;20193;-83
2022/03/07 12:39:32;;;;;;;0.47;0.47;;;5.40;99.90;;;;;;5024337;28;20207;-84
2022/03/07 12:42:02;;;;;;;0.87;0.50;;;5.90;99.90;;;;;;5023859;28;20241;-83
2022/03/07 12:44:28;;;;;;;0.30;0.30;;;5.60;99.90;;;;;;5023842;28;20272;-85
2022/03/07 12:46:53;;;;;;;0.53;0.20;;;6.10;99.90;;;;;;5022723;28;20182;-84
2022/03/07 12:49:19;;;;;;;0.70;0.67;;;6.10;99.90;;;;;;5018038;28;20235;-84